Time;durP1;ratioP1;P1;durP2;ratioP2;P2;SDS_P1;SDS_P2;PMS_P1;PMS_P2;Temp;Humidity;BMP_temperature;BMP_pressure;BME280_temperature;BME280_humidity;BME280_pressure;Samples;Min_cycle;Max_cycle;Signal;HPM_P1;HPM_P2
2021/11/09 00:00:31;;;;;;;9.87;4.47;;;9.60;99.90;;;;;;5012685;28;21133;-77
2021/11/09 00:02:58;;;;;;;10.63;4.03;;;9.60;99.90;;;;;;5013177;28;20212;-77
2021/11/09 00:05:27;;;;;;;12.35;3.80;;;9.50;99.90;;;;;;5013232;28;20248;-77
2021/11/09 00:07:57;;;;;;;11.10;5.00;;;9.50;99.90;;;;;;4978698;28;20277;-77
2021/11/09 00:10:25;;;;;;;13.90;5.22;;;9.40;99.90;;;;;;5012998;28;20170;-77
2021/11/09 00:12:54;;;;;;;9.75;4.80;;;9.40;99.90;;;;;;5013109;28;20663;-77
2021/11/09 00:15:22;;;;;;;15.50;4.35;;;9.30;99.90;;;;;;5012915;28;20177;-77
2021/11/09 00:17:51;;;;;;;9.50;5.30;;;9.30;99.90;;;;;;4995447;28;20602;-77
2021/11/09 00:20:19;;;;;;;9.68;4.30;;;9.30;99.90;;;;;;5012727;28;20665;-77
2021/11/09 00:22:45;;;;;;;12.80;4.90;;;9.20;99.90;;;;;;5012927;28;20174;-77
2021/11/09 00:25:14;;;;;;;14.82;4.50;;;9.20;99.90;;;;;;5012822;28;20206;-77
2021/11/09 00:27:40;;;;;;;12.32;4.70;;;9.20;99.90;;;;;;4995085;28;20520;-78
2021/11/09 00:30:09;;;;;;;14.43;5.87;;;9.10;99.90;;;;;;4995600;28;20169;-78
2021/11/09 00:32:37;;;;;;;12.40;4.57;;;9.10;99.90;;;;;;5011340;28;20574;-78
2021/11/09 00:35:07;;;;;;;8.02;3.90;;;9.00;99.90;;;;;;4995198;28;20174;-78
2021/11/09 00:37:33;;;;;;;17.65;5.18;;;9.00;99.90;;;;;;5012168;28;20205;-78
2021/11/09 00:39:59;;;;;;;10.63;4.00;;;9.00;99.90;;;;;;4995354;28;20170;-77
2021/11/09 00:42:25;;;;;;;11.23;5.03;;;8.90;99.90;;;;;;5012743;28;20217;-77
2021/11/09 00:44:50;;;;;;;15.27;4.57;;;8.90;99.90;;;;;;5012286;28;20723;-77
2021/11/09 00:47:16;;;;;;;11.77;4.20;;;8.90;99.90;;;;;;5011934;28;20589;-77
2021/11/09 00:49:42;;;;;;;6.80;3.90;;;8.90;99.90;;;;;;4995000;28;20170;-77
2021/11/09 00:52:11;;;;;;;9.13;4.47;;;8.80;99.90;;;;;;4994805;28;20233;-77
2021/11/09 00:54:37;;;;;;;15.95;4.68;;;8.80;99.90;;;;;;5013139;28;20174;-77
2021/11/09 00:57:04;;;;;;;13.93;5.05;;;8.80;99.90;;;;;;4994785;28;20166;-77
2021/11/09 00:59:30;;;;;;;14.48;5.10;;;8.80;99.90;;;;;;5012361;28;20194;-78
2021/11/09 01:01:57;;;;;;;10.38;4.97;;;8.70;99.90;;;;;;5012463;28;20170;-77
2021/11/09 01:04:23;;;;;;;14.25;4.55;;;8.70;99.90;;;;;;5011700;28;20213;-78
2021/11/09 01:06:49;;;;;;;10.65;5.20;;;8.70;99.90;;;;;;4994594;28;20265;-78
2021/11/09 01:09:15;;;;;;;10.97;5.93;;;8.70;99.90;;;;;;4994472;28;20214;-78
2021/11/09 01:11:40;;;;;;;7.90;3.97;;;8.70;99.90;;;;;;5012192;28;20660;-78
2021/11/09 01:14:06;;;;;;;13.73;5.00;;;8.60;99.90;;;;;;5012134;28;20170;-79
2021/11/09 01:16:36;;;;;;;14.48;4.78;;;8.60;99.90;;;;;;5011878;28;20182;-77
2021/11/09 01:19:04;;;;;;;13.40;5.30;;;8.60;99.90;;;;;;5011661;28;20194;-78
2021/11/09 01:21:32;;;;;;;11.15;4.57;;;8.60;99.90;;;;;;5012325;28;20170;-77
2021/11/09 01:23:58;;;;;;;11.50;5.10;;;8.60;99.90;;;;;;5012018;28;20181;-77
2021/11/09 01:26:25;;;;;;;10.60;4.90;;;8.60;99.90;;;;;;5012917;28;20167;-76
2021/11/09 01:28:53;;;;;;;10.48;4.18;;;8.50;99.90;;;;;;5021233;28;20202;-76
2021/11/09 01:31:20;;;;;;;10.07;5.07;;;8.50;99.90;;;;;;5018694;28;20593;-78
2021/11/09 01:33:47;;;;;;;8.05;4.70;;;8.50;99.90;;;;;;5011765;28;20173;-78
2021/11/09 01:36:13;;;;;;;12.57;4.25;;;8.50;99.90;;;;;;5011243;28;20213;-78
2021/11/09 01:38:39;;;;;;;11.38;4.30;;;8.50;99.90;;;;;;4994202;28;20615;-78
2021/11/09 01:41:08;;;;;;;9.82;4.85;;;8.50;99.90;;;;;;5011774;28;20194;-78
2021/11/09 01:43:39;;;;;;;7.80;4.65;;;8.50;99.90;;;;;;5003701;28;20198;-78
2021/11/09 01:46:07;;;;;;;12.70;4.45;;;8.50;99.90;;;;;;5010312;28;20280;-78
2021/11/09 01:48:36;;;;;;;17.98;5.20;;;8.40;99.90;;;;;;5011846;28;20198;-78
2021/11/09 01:51:05;;;;;;;10.88;5.05;;;8.40;99.90;;;;;;4994291;28;20170;-78
2021/11/09 01:53:32;;;;;;;14.05;5.97;;;8.40;99.90;;;;;;5011438;28;20209;-78
2021/11/09 01:56:02;;;;;;;12.25;5.15;;;8.40;99.90;;;;;;5011321;28;20253;-78
2021/11/09 01:58:29;;;;;;;11.45;5.18;;;8.40;99.90;;;;;;5011420;28;20190;-78
2021/11/09 02:00:58;;;;;;;13.52;4.95;;;8.40;99.90;;;;;;5010425;28;20553;-78
2021/11/09 02:03:25;;;;;;;11.65;5.30;;;8.40;99.90;;;;;;4993460;28;20178;-78
2021/11/09 02:05:53;;;;;;;13.43;5.40;;;8.40;99.90;;;;;;5011287;28;20201;-78
2021/11/09 02:08:19;;;;;;;12.27;5.00;;;8.30;99.90;;;;;;5011748;28;20647;-78
2021/11/09 02:10:48;;;;;;;14.98;5.20;;;8.30;99.90;;;;;;4995253;28;20163;-79
2021/11/09 02:13:15;;;;;;;11.85;4.53;;;8.30;99.90;;;;;;4993568;28;20701;-78
2021/11/09 02:15:41;;;;;;;9.93;4.05;;;8.20;99.90;;;;;;4993775;28;20173;-78
2021/11/09 02:18:13;;;;;;;9.82;5.30;;;8.20;99.90;;;;;;5010986;28;20281;-78
2021/11/09 02:20:40;;;;;;;9.20;4.47;;;8.20;99.90;;;;;;5011234;28;20177;-78
2021/11/09 02:23:07;;;;;;;15.32;5.90;;;8.20;99.90;;;;;;5011310;28;20163;-78
2021/11/09 02:25:34;;;;;;;9.25;4.30;;;8.20;99.90;;;;;;4997441;28;20206;-78
2021/11/09 02:28:01;;;;;;;12.80;4.78;;;8.20;99.90;;;;;;4997322;28;20186;-79
2021/11/09 02:30:30;;;;;;;10.90;4.90;;;8.20;99.90;;;;;;4997512;28;20194;-79
2021/11/09 02:32:57;;;;;;;14.77;5.82;;;8.20;99.90;;;;;;5015190;28;20167;-78
2021/11/09 02:35:24;;;;;;;18.92;5.30;;;8.20;99.90;;;;;;5012268;28;20175;-78
2021/11/09 02:37:57;;;;;;;16.25;4.50;;;8.20;99.90;;;;;;5033343;28;20262;-78
2021/11/09 02:40:24;;;;;;;9.30;4.47;;;8.20;99.90;;;;;;5013368;28;20170;-78
2021/11/09 02:42:58;;;;;;;10.23;4.95;;;8.20;99.90;;;;;;5026208;28;20260;-79
2021/11/09 02:45:51;;;;;;;7.18;3.67;;;8.20;99.90;;;;;;5006969;28;20248;-78
2021/11/09 02:48:22;;;;;;;10.57;4.13;;;8.20;99.90;;;;;;5017409;28;20215;-78
2021/11/09 02:50:54;;;;;;;13.73;5.30;;;8.20;99.90;;;;;;5017193;28;20181;-79
2021/11/09 02:53:43;;;;;;;6.25;3.60;;;8.30;99.90;;;;;;4998618;28;20171;-78
2021/11/09 02:58:47;;;;;;;8.52;4.00;;;8.30;99.90;;;;;;5015751;28;20301;-78
2021/11/09 03:01:24;;;;;;;11.02;4.45;;;8.30;99.90;;;;;;4999209;28;20553;-78
2021/11/09 03:04:04;;;;;;;11.23;3.95;;;8.30;99.90;;;;;;5015958;28;20162;-78
2021/11/09 03:09:08;;;;;;;9.80;3.90;;;8.30;99.90;;;;;;5016631;28;20194;-78
2021/11/09 03:11:36;;;;;;;7.57;3.63;;;8.20;99.90;;;;;;5016465;28;20212;-78
2021/11/09 03:14:02;;;;;;;10.00;3.28;;;8.20;99.90;;;;;;5014624;28;20195;-78
2021/11/09 03:16:32;;;;;;;8.07;4.22;;;8.20;99.90;;;;;;5015575;28;20166;-78
2021/11/09 03:19:29;;;;;;;10.75;4.63;;;8.20;99.90;;;;;;5015906;28;20531;-77
2021/11/09 03:44:22;;;;;;;9.13;3.70;;;8.00;99.90;;;;;;4977483;28;20307;-79
2021/11/09 03:46:56;;;;;;;5.20;3.25;;;7.90;99.90;;;;;;5012785;28;20185;-78
2021/11/09 03:49:25;;;;;;;9.90;3.38;;;7.90;99.90;;;;;;4996994;28;20196;-79
2021/11/09 03:51:53;;;;;;;7.20;3.13;;;7.90;99.90;;;;;;4997120;28;20175;-79
2021/11/09 03:54:26;;;;;;;12.68;2.92;;;7.90;99.90;;;;;;4996735;28;20647;-79
2021/11/09 03:56:58;;;;;;;9.65;3.30;;;7.90;99.90;;;;;;5013049;28;20178;-78
2021/11/09 04:07:53;;;;;;;12.65;3.17;;;7.80;99.90;;;;;;5003456;28;20206;-78
2021/11/09 04:10:45;;;;;;;9.95;4.03;;;7.80;99.90;;;;;;5013182;28;20562;-79
2021/11/09 04:19:21;;;;;;;11.60;3.80;;;7.80;99.90;;;;;;4990385;28;20220;-78
2021/11/09 04:22:03;;;;;;;11.20;3.33;;;7.80;99.90;;;;;;5010984;28;20194;-78
2021/11/09 04:44:23;;;;;;;7.63;4.18;;;7.60;99.90;;;;;;5012691;28;20209;-78
2021/11/09 04:52:08;;;;;;;9.63;3.77;;;7.60;99.90;;;;;;5012548;28;20566;-77
2021/11/09 05:10:24;;;;;;;5.25;2.67;;;7.60;99.90;;;;;;5012624;28;20309;-78
2021/11/09 05:12:50;;;;;;;11.10;3.80;;;7.60;99.90;;;;;;5012955;28;20267;-77
2021/11/09 05:15:16;;;;;;;8.10;3.77;;;7.60;99.90;;;;;;5012562;28;20202;-78
2021/11/09 05:17:42;;;;;;;9.17;3.20;;;7.50;99.90;;;;;;5011641;28;20601;-78
2021/11/09 05:20:08;;;;;;;7.50;3.50;;;7.50;99.90;;;;;;5012338;28;20254;-78
2021/11/09 05:22:33;;;;;;;7.72;3.50;;;7.50;99.90;;;;;;5011608;28;20674;-78
2021/11/09 05:24:59;;;;;;;7.30;3.40;;;7.50;99.90;;;;;;5011813;28;20233;-77
2021/11/09 05:27:27;;;;;;;9.93;3.65;;;7.50;99.90;;;;;;5011261;28;20669;-78
2021/11/09 05:29:55;;;;;;;10.05;4.90;;;7.50;99.90;;;;;;4994744;28;20193;-78
2021/11/09 05:32:22;;;;;;;7.93;4.13;;;7.50;99.90;;;;;;5011839;28;20654;-78
2021/11/09 05:34:48;;;;;;;9.30;3.85;;;7.50;99.90;;;;;;5010656;28;20174;-78
2021/11/09 05:37:18;;;;;;;12.13;4.85;;;7.50;99.90;;;;;;4977599;28;20549;-78
2021/11/09 05:39:53;;;;;;;9.18;3.85;;;7.50;99.90;;;;;;5012028;28;20257;-78
2021/11/09 05:42:19;;;;;;;6.90;3.80;;;7.50;99.90;;;;;;5012133;28;20170;-79
2021/11/09 05:44:45;;;;;;;8.10;4.23;;;7.60;99.90;;;;;;5011528;28;20208;-79
2021/11/09 05:47:12;;;;;;;10.63;4.55;;;7.60;99.90;;;;;;5011510;28;20980;-79
2021/11/09 05:49:39;;;;;;;8.95;4.90;;;7.60;99.90;;;;;;5012267;28;20677;-78
2021/11/09 05:52:04;;;;;;;8.15;4.70;;;7.60;99.90;;;;;;5012011;28;20257;-79
2021/11/09 05:54:30;;;;;;;11.20;4.87;;;7.70;99.90;;;;;;4994015;28;20604;-79
2021/11/09 05:56:56;;;;;;;8.10;4.37;;;7.70;99.90;;;;;;5011503;28;20577;-79
2021/11/09 05:59:22;;;;;;;8.20;3.47;;;7.70;99.90;;;;;;5013725;28;20621;-79
2021/11/09 06:01:47;;;;;;;9.40;4.53;;;7.70;99.90;;;;;;5015820;28;20178;-79
2021/11/09 06:04:14;;;;;;;8.80;4.63;;;7.70;99.90;;;;;;5015695;28;20205;-80
2021/11/09 06:06:40;;;;;;;12.57;4.40;;;7.70;99.90;;;;;;5014967;28;20530;-80
2021/11/09 06:09:05;;;;;;;9.60;4.53;;;7.70;99.90;;;;;;5015649;28;20190;-79
2021/11/09 06:11:31;;;;;;;7.40;4.10;;;7.70;99.90;;;;;;5015590;28;20162;-79
2021/11/09 06:13:57;;;;;;;14.37;4.80;;;7.60;99.90;;;;;;5015444;28;20167;-80
2021/11/09 06:16:23;;;;;;;9.93;4.40;;;7.60;99.90;;;;;;5014962;28;20241;-80
2021/11/09 06:18:49;;;;;;;11.03;4.97;;;7.60;99.90;;;;;;5015600;28;20593;-79
2021/11/09 06:21:14;;;;;;;10.43;4.60;;;7.60;99.90;;;;;;5018607;28;20181;-80
2021/11/09 06:23:40;;;;;;;5.97;4.00;;;7.60;99.90;;;;;;5033305;28;20558;-80
2021/11/09 06:26:06;;;;;;;11.67;4.70;;;7.60;99.90;;;;;;5026558;28;20237;-80
2021/11/09 06:28:32;;;;;;;9.67;4.50;;;7.60;99.90;;;;;;5020070;28;20558;-80
2021/11/09 06:30:58;;;;;;;7.97;4.10;;;7.60;99.90;;;;;;5017685;28;20627;-78
2021/11/09 06:33:24;;;;;;;8.97;4.23;;;7.60;99.90;;;;;;5015198;28;20250;-79
2021/11/09 06:35:51;;;;;;;16.48;5.78;;;7.60;99.90;;;;;;4997199;28;20566;-79
2021/11/09 06:38:18;;;;;;;9.65;4.38;;;7.60;99.90;;;;;;5013743;28;20210;-79
2021/11/09 06:40:44;;;;;;;8.55;4.70;;;7.60;99.90;;;;;;4998423;28;20257;-79
2021/11/09 06:43:10;;;;;;;8.70;4.28;;;7.60;99.90;;;;;;5014890;28;20533;-79
2021/11/09 06:45:36;;;;;;;12.15;4.13;;;7.60;99.90;;;;;;5019755;28;20202;-79
2021/11/09 06:48:02;;;;;;;6.23;3.83;;;7.60;99.90;;;;;;5035799;28;20186;-80
2021/11/09 06:50:29;;;;;;;9.27;3.95;;;7.70;99.90;;;;;;5041804;28;20176;-81
2021/11/09 06:52:55;;;;;;;9.53;4.23;;;7.70;99.90;;;;;;5029943;28;20179;-80
2021/11/09 06:55:20;;;;;;;7.78;4.65;;;7.70;99.90;;;;;;5030289;28;20891;-80
2021/11/09 06:57:47;;;;;;;8.43;4.57;;;7.80;99.90;;;;;;5034065;28;20269;-79
2021/11/09 07:00:19;;;;;;;13.95;5.70;;;7.80;99.90;;;;;;5034170;28;20173;-79
2021/11/09 07:02:45;;;;;;;9.63;4.57;;;7.80;99.90;;;;;;5033744;28;20178;-79
2021/11/09 07:05:12;;;;;;;12.88;4.95;;;7.90;99.90;;;;;;5042275;28;20288;-80
2021/11/09 07:07:38;;;;;;;10.82;4.40;;;7.90;99.90;;;;;;5033377;28;20221;-80
2021/11/09 07:10:05;;;;;;;8.25;4.15;;;8.00;99.90;;;;;;5034021;28;20201;-79
2021/11/09 07:12:31;;;;;;;10.30;5.25;;;8.00;99.90;;;;;;5016137;28;20174;-80
2021/11/09 07:14:56;;;;;;;11.83;5.50;;;8.00;99.90;;;;;;5033814;28;20181;-80
2021/11/09 07:17:22;;;;;;;8.80;5.37;;;8.10;99.90;;;;;;5034800;28;20560;-80
2021/11/09 07:19:51;;;;;;;14.83;5.70;;;8.10;99.90;;;;;;5034737;28;20622;-80
2021/11/09 07:22:21;;;;;;;12.02;5.20;;;8.10;99.90;;;;;;5034017;28;20192;-80
2021/11/09 07:24:47;;;;;;;8.73;4.85;;;8.10;99.90;;;;;;5033828;28;20688;-81
2021/11/09 07:27:13;;;;;;;11.67;5.20;;;8.20;99.90;;;;;;5033190;28;20184;-81
2021/11/09 07:29:44;;;;;;;12.48;6.15;;;8.20;99.90;;;;;;5033950;28;20658;-81
2021/11/09 07:32:11;;;;;;;12.68;5.70;;;8.20;99.90;;;;;;5033845;28;20174;-81
2021/11/09 07:34:37;;;;;;;11.88;5.40;;;8.20;99.90;;;;;;5036033;28;20197;-81
2021/11/09 07:37:03;;;;;;;15.60;5.57;;;8.20;99.90;;;;;;5035841;28;20172;-80
2021/11/09 07:39:29;;;;;;;11.30;5.22;;;8.30;99.90;;;;;;5038847;28;20212;-80
2021/11/09 07:41:55;;;;;;;10.10;6.37;;;8.30;99.90;;;;;;5044150;28;20536;-80
2021/11/09 07:44:21;;;;;;;11.77;6.37;;;8.30;99.90;;;;;;5035407;28;20229;-80
2021/11/09 07:46:46;;;;;;;7.20;4.93;;;8.30;99.90;;;;;;5034279;28;20565;-81
2021/11/09 07:49:13;;;;;;;13.30;5.97;;;8.40;99.90;;;;;;5033889;28;20659;-80
2021/11/09 07:51:38;;;;;;;13.35;6.18;;;8.40;99.90;;;;;;5033840;28;20189;-81
2021/11/09 07:54:05;;;;;;;11.07;5.30;;;8.40;99.90;;;;;;5031861;28;20522;-81
2021/11/09 07:56:36;;;;;;;12.65;5.72;;;8.50;99.90;;;;;;5026407;28;20170;-80
2021/11/09 08:04:09;;;;;;;12.30;5.28;;;8.60;99.90;;;;;;5013826;28;20179;-85
2021/11/09 08:09:28;;;;;;;6.70;3.70;;;8.70;99.90;;;;;;5013512;28;20185;-86
2021/11/09 08:12:00;;;;;;;10.68;5.88;;;8.80;99.90;;;;;;5014941;28;20209;-85
2021/11/09 08:14:27;;;;;;;16.00;6.72;;;8.90;99.90;;;;;;5015040;28;20176;-85
2021/11/09 08:16:53;;;;;;;8.48;5.85;;;8.90;99.90;;;;;;5014983;28;20174;-83
2021/11/09 08:19:20;;;;;;;7.78;5.25;;;9.00;99.90;;;;;;5018949;28;20218;-85
2021/11/09 08:21:52;;;;;;;9.77;5.30;;;9.10;99.90;;;;;;5012568;28;20177;-86
2021/11/09 08:24:19;;;;;;;9.68;5.93;;;9.20;99.90;;;;;;5013857;28;20202;-87
2021/11/09 08:26:46;;;;;;;10.35;5.43;;;9.20;99.90;;;;;;4995678;28;20209;-87
2021/11/09 08:29:13;;;;;;;11.60;6.50;;;9.30;99.90;;;;;;5013565;28;20186;-87
2021/11/09 08:31:42;;;;;;;12.70;5.40;;;9.40;99.90;;;;;;5013586;28;20197;-87
2021/11/09 08:34:08;;;;;;;11.48;5.85;;;9.50;99.90;;;;;;5017986;28;20177;-87
2021/11/09 08:36:35;;;;;;;8.80;5.90;;;9.50;99.90;;;;;;5013057;28;20166;-85
2021/11/09 08:39:05;;;;;;;10.27;6.78;;;9.60;99.90;;;;;;5013183;28;20198;-87
2021/11/09 08:41:42;;;;;;;10.13;6.18;;;9.60;99.90;;;;;;5034153;28;20601;-87
2021/11/09 08:44:15;;;;;;;11.80;5.53;;;9.70;99.90;;;;;;5032491;28;20162;-87
2021/11/09 08:46:50;;;;;;;9.95;5.72;;;9.80;99.90;;;;;;5015284;28;20169;-87
2021/11/09 08:49:22;;;;;;;9.70;4.65;;;9.90;99.90;;;;;;5032628;28;20197;-86
2021/11/09 08:51:50;;;;;;;14.88;6.13;;;10.00;99.90;;;;;;5033080;28;20158;-86
2021/11/09 08:54:22;;;;;;;10.38;4.85;;;10.10;99.90;;;;;;5033508;28;20178;-85
2021/11/09 09:04:54;;;;;;;13.30;4.70;;;10.50;99.90;;;;;;5045289;28;20379;-86
2021/11/09 09:07:24;;;;;;;9.18;4.18;;;10.70;99.90;;;;;;5037210;28;20264;-87
2021/11/09 09:09:51;;;;;;;10.57;5.00;;;10.90;99.90;;;;;;5036987;28;20166;-87
2021/11/09 09:12:17;;;;;;;12.30;6.75;;;11.00;99.90;;;;;;5033395;28;20638;-85
2021/11/09 09:14:43;;;;;;;7.20;4.90;;;11.10;99.90;;;;;;5035045;28;20265;-87
2021/11/09 09:17:09;;;;;;;7.50;4.73;;;11.20;99.90;;;;;;5036638;28;20193;-84
2021/11/09 09:19:47;;;;;;;7.35;5.32;;;11.30;99.90;;;;;;5041079;28;20607;-82
2021/11/09 09:22:15;;;;;;;4.82;4.13;;;11.50;99.90;;;;;;5039881;28;20173;-87
2021/11/09 09:57:08;;;;;;;6.90;4.37;;;13.30;99.90;;;;;;5043630;28;20589;-86
2021/11/09 09:59:37;;;;;;;5.90;4.07;;;13.40;99.90;;;;;;5034773;28;20627;-87
2021/11/09 10:02:12;;;;;;;11.20;5.60;;;13.40;99.90;;;;;;5034308;28;20604;-86
2021/11/09 10:05:05;;;;;;;8.53;4.93;;;13.40;99.90;;;;;;5044474;28;20658;-86
2021/11/09 10:07:39;;;;;;;9.37;4.80;;;13.40;99.90;;;;;;5055043;28;20596;-87
2021/11/09 10:10:11;;;;;;;10.20;4.43;;;13.50;99.90;;;;;;5065607;28;20563;-86
2021/11/09 10:12:41;;;;;;;12.67;7.00;;;13.40;99.90;;;;;;5052101;28;20941;-86
2021/11/09 10:15:18;;;;;;;9.13;4.90;;;13.50;99.90;;;;;;5051787;28;20601;-87
2021/11/09 10:17:49;;;;;;;9.47;5.07;;;13.40;99.90;;;;;;5051629;28;20601;-87
2021/11/09 10:20:23;;;;;;;11.30;5.10;;;13.40;99.90;;;;;;5047168;28;20678;-87
2021/11/09 10:22:55;;;;;;;7.77;4.60;;;13.30;99.90;;;;;;5034057;28;20560;-87
2021/11/09 10:25:22;;;;;;;9.03;4.57;;;13.30;99.90;;;;;;5049820;28;20618;-88
2021/11/09 10:27:52;;;;;;;9.43;4.20;;;13.40;99.90;;;;;;5032685;28;20602;-88
2021/11/09 10:30:25;;;;;;;9.00;4.90;;;13.40;99.90;;;;;;5036865;28;20575;-86
2021/11/09 10:32:52;;;;;;;6.07;4.03;;;13.40;99.90;;;;;;5062087;28;20582;-85
2021/11/09 10:35:19;;;;;;;7.73;4.13;;;13.40;99.90;;;;;;5020898;28;20967;-87
2021/11/09 10:37:51;;;;;;;6.57;4.00;;;13.50;99.90;;;;;;5051733;28;20602;-84
2021/11/09 10:40:21;;;;;;;8.82;4.65;;;13.50;99.90;;;;;;5051430;28;20983;-87
2021/11/09 10:42:51;;;;;;;14.47;6.60;;;13.60;99.90;;;;;;5034339;28;20180;-87
2021/11/09 10:45:19;;;;;;;8.90;4.80;;;13.60;99.90;;;;;;5053168;28;20685;-87
2021/11/09 10:47:49;;;;;;;13.93;6.23;;;13.60;99.90;;;;;;5054037;28;20644;-87
2021/11/09 10:50:35;;;;;;;11.33;5.77;;;13.60;99.90;;;;;;5047722;28;20641;-86
2021/11/09 10:53:18;;;;;;;8.47;4.97;;;13.70;99.90;;;;;;5032917;28;20581;-86
2021/11/09 10:59:47;;;;;;;5.63;4.57;;;13.80;99.90;;;;;;5034484;28;20671;-88
2021/11/09 11:04:40;;;;;;;5.87;3.80;;;13.90;99.90;;;;;;5034385;28;20622;-87
2021/11/09 11:07:10;;;;;;;7.00;4.27;;;13.90;99.90;;;;;;5035670;28;20580;-87
2021/11/09 11:09:38;;;;;;;8.10;4.93;;;14.00;99.90;;;;;;5017908;28;20687;-88
2021/11/09 11:12:06;;;;;;;6.60;3.33;;;14.00;99.90;;;;;;5034763;28;20626;-88
2021/11/09 11:14:32;;;;;;;4.87;3.23;;;14.10;99.90;;;;;;5034899;28;20964;-87
2021/11/09 11:17:04;;;;;;;8.40;4.37;;;14.10;99.90;;;;;;5033983;28;20650;-88
2021/11/09 11:19:33;;;;;;;9.30;3.80;;;14.10;99.90;;;;;;5035450;28;20596;-88
2021/11/09 11:22:00;;;;;;;5.57;3.70;;;14.20;99.90;;;;;;5036431;28;20644;-87
2021/11/09 11:24:27;;;;;;;5.77;3.93;;;14.20;99.90;;;;;;5035140;28;20623;-87
2021/11/09 11:26:54;;;;;;;4.90;3.47;;;14.20;99.90;;;;;;5033366;28;20587;-85
2021/11/09 11:29:23;;;;;;;5.47;3.93;;;14.20;99.90;;;;;;5033120;28;20737;-87
2021/11/09 11:31:51;;;;;;;8.60;4.07;;;14.20;99.90;;;;;;5033318;28;21212;-88
2021/11/09 11:34:18;;;;;;;5.50;2.50;;;14.10;99.90;;;;;;5034385;28;20576;-86
2021/11/09 11:36:45;;;;;;;6.07;3.30;;;14.20;99.90;;;;;;5033327;28;20583;-86
2021/11/09 11:39:13;;;;;;;11.30;3.07;;;14.20;99.90;;;;;;5016117;28;21234;-85
2021/11/09 11:41:44;;;;;;;5.17;3.00;;;14.20;99.90;;;;;;5033649;28;20603;-85
2021/11/09 11:44:13;;;;;;;6.03;2.03;;;14.20;99.90;;;;;;5033677;28;20611;-85
2021/11/09 11:46:38;;;;;;;6.50;3.20;;;14.20;99.90;;;;;;5033518;28;20939;-87
2021/11/09 11:49:19;;;;;;;11.30;3.47;;;14.20;99.90;;;;;;5034230;28;20596;-85
2021/11/09 11:51:45;;;;;;;6.93;3.47;;;14.20;99.90;;;;;;5034700;28;20162;-85
2021/11/09 11:54:17;;;;;;;7.17;2.60;;;14.20;99.90;;;;;;5039589;28;20569;-85
2021/11/09 11:56:46;;;;;;;4.17;2.50;;;14.30;99.90;;;;;;5036906;28;20193;-88
2021/11/09 11:59:21;;;;;;;4.50;1.80;;;14.30;99.90;;;;;;5037858;28;20634;-85
2021/11/09 12:01:47;;;;;;;4.50;2.43;;;14.40;99.90;;;;;;5035162;28;20556;-84
2021/11/09 12:04:36;;;;;;;4.63;2.77;;;14.50;99.90;;;;;;5051790;28;20560;-85
2021/11/09 12:07:18;;;;;;;6.70;2.03;;;14.50;99.90;;;;;;5035300;28;20591;-84
2021/11/09 12:09:47;;;;;;;5.87;1.80;;;14.50;99.90;;;;;;5033226;28;20561;-85
2021/11/09 12:12:20;;;;;;;9.37;2.77;;;14.60;99.90;;;;;;5034185;28;20912;-85
2021/11/09 12:14:51;;;;;;;3.57;1.97;;;14.60;99.90;;;;;;5035891;28;20568;-84
2021/11/09 12:17:33;;;;;;;4.53;2.50;;;14.60;99.90;;;;;;5033853;28;20656;-84
2021/11/09 12:20:05;;;;;;;8.20;1.97;;;14.50;99.90;;;;;;5040778;28;20620;-83
2021/11/09 12:22:47;;;;;;;3.30;1.53;;;14.50;99.90;;;;;;5039408;28;20639;-84
2021/11/09 12:25:32;;;;;;;7.20;1.90;;;14.50;99.90;;;;;;5035598;28;20616;-84
2021/11/09 12:28:00;;;;;;;6.53;2.47;;;14.60;99.90;;;;;;5036229;28;20599;-84
2021/11/09 12:30:33;;;;;;;6.77;3.53;;;14.60;99.90;;;;;;5041605;28;20599;-84
2021/11/09 12:33:15;;;;;;;6.70;3.07;;;14.50;99.90;;;;;;5045626;28;20607;-84
2021/11/09 12:35:44;;;;;;;7.40;2.93;;;14.50;99.90;;;;;;5054093;28;20587;-85
2021/11/09 12:38:14;;;;;;;6.57;3.00;;;14.60;99.90;;;;;;5073852;28;20611;-84
2021/11/09 12:40:46;;;;;;;5.47;2.10;;;14.60;99.90;;;;;;5038106;28;20588;-84
2021/11/09 12:43:23;;;;;;;6.10;1.77;;;14.60;99.90;;;;;;5038424;28;20580;-84
2021/11/09 12:46:26;;;;;;;4.77;1.90;;;14.70;99.90;;;;;;5054869;28;20718;-84
2021/11/09 12:49:24;;;;;;;5.10;1.80;;;14.70;99.90;;;;;;5054001;28;20583;-83
2021/11/09 12:51:58;;;;;;;4.40;2.07;;;14.70;99.90;;;;;;5037102;28;21046;-82
2021/11/09 12:54:47;;;;;;;4.17;1.73;;;14.80;99.90;;;;;;5041569;28;20642;-84
2021/11/09 12:57:29;;;;;;;4.53;2.43;;;14.80;99.90;;;;;;5053189;28;20589;-86
2021/11/09 13:02:51;;;;;;;7.00;2.20;;;14.80;99.90;;;;;;5055666;28;20963;-82
2021/11/09 13:05:26;;;;;;;4.50;2.37;;;14.80;99.90;;;;;;5052569;28;20682;-82
2021/11/09 13:08:25;;;;;;;6.80;3.80;;;14.80;99.90;;;;;;5051872;28;20996;-84
2021/11/09 13:11:43;;;;;;;5.00;1.67;;;14.70;99.90;;;;;;5054767;28;20663;-82
2021/11/09 13:14:27;;;;;;;4.37;1.73;;;14.60;99.90;;;;;;5036887;28;20579;-83
2021/11/09 13:17:16;;;;;;;5.10;1.80;;;14.60;99.90;;;;;;5035811;28;20572;-83
2021/11/09 13:19:48;;;;;;;4.17;1.67;;;14.60;99.90;;;;;;5051961;28;20592;-83
2021/11/09 13:22:29;;;;;;;4.17;1.40;;;14.70;99.90;;;;;;5056646;28;20606;-83
2021/11/09 13:25:10;;;;;;;3.07;1.80;;;14.70;99.90;;;;;;5051658;28;20619;-83
2021/11/09 13:27:48;;;;;;;8.03;2.70;;;14.70;99.90;;;;;;5050169;28;21139;-83
2021/11/09 13:30:19;;;;;;;4.87;2.13;;;14.60;99.90;;;;;;5051661;28;20984;-84
2021/11/09 13:32:55;;;;;;;2.80;1.40;;;14.60;99.90;;;;;;5032944;28;21210;-84
2021/11/09 13:35:37;;;;;;;3.83;1.30;;;14.60;99.90;;;;;;5051246;28;21386;-83
2021/11/09 13:38:25;;;;;;;6.03;1.60;;;14.60;99.90;;;;;;5052501;28;20667;-85
2021/11/09 13:41:27;;;;;;;5.10;2.13;;;14.60;99.90;;;;;;5053777;28;20617;-84
2021/11/09 13:44:12;;;;;;;3.60;1.63;;;14.60;99.90;;;;;;5046227;28;20576;-83
2021/11/09 13:46:47;;;;;;;5.97;2.23;;;14.60;99.90;;;;;;5050848;28;20674;-82
2021/11/09 13:49:32;;;;;;;4.67;1.90;;;14.60;99.90;;;;;;5052353;28;20587;-84
2021/11/09 13:51:59;;;;;;;6.67;2.37;;;14.50;99.90;;;;;;5053878;28;20560;-83
2021/11/09 13:54:54;;;;;;;5.53;2.60;;;14.50;99.90;;;;;;5051303;28;20564;-84
2021/11/09 13:57:24;;;;;;;4.80;2.30;;;14.50;99.90;;;;;;5050021;28;20630;-80
2021/11/09 13:59:50;;;;;;;4.60;1.30;;;14.50;99.90;;;;;;5050883;28;20567;-80
2021/11/09 14:02:47;;;;;;;3.50;1.40;;;14.50;99.90;;;;;;5049577;28;20663;-81
2021/11/09 14:05:37;;;;;;;2.27;1.40;;;14.50;99.90;;;;;;5051134;28;20623;-79
2021/11/09 14:17:02;;;;;;;5.47;1.80;;;14.50;99.90;;;;;;5032736;28;20579;-81
2021/11/09 14:19:42;;;;;;;3.53;1.93;;;14.40;99.90;;;;;;5018356;28;21184;-82
2021/11/09 14:22:18;;;;;;;3.93;1.27;;;14.40;99.90;;;;;;5055147;28;20570;-84
2021/11/09 14:25:02;;;;;;;4.07;1.57;;;14.30;99.90;;;;;;5051936;28;21152;-83
2021/11/09 14:27:57;;;;;;;4.23;1.30;;;14.30;99.90;;;;;;5058692;28;20607;-82
2021/11/09 14:30:32;;;;;;;4.37;1.23;;;14.40;99.90;;;;;;5054302;28;20957;-83
2021/11/09 14:33:20;;;;;;;2.80;1.30;;;14.40;99.90;;;;;;5035841;28;20578;-83
2021/11/09 14:35:54;;;;;;;2.10;1.10;;;14.30;99.90;;;;;;5053819;28;20593;-83
2021/11/09 14:38:26;;;;;;;1.87;1.10;;;14.30;99.90;;;;;;5054404;28;20614;-82
2021/11/09 14:41:22;;;;;;;3.67;1.90;;;14.30;99.90;;;;;;5054418;28;20993;-83
2021/11/09 14:44:02;;;;;;;3.47;1.50;;;14.20;99.90;;;;;;5035672;28;20568;-82
2021/11/09 14:46:57;;;;;;;4.90;1.50;;;14.20;99.90;;;;;;5053425;28;21007;-81
2021/11/09 14:49:41;;;;;;;7.70;1.30;;;14.20;99.90;;;;;;5053524;28;20630;-81
2021/11/09 14:52:39;;;;;;;3.37;1.20;;;14.20;99.90;;;;;;5029133;28;21108;-82
2021/11/09 14:55:40;;;;;;;4.50;2.30;;;14.20;99.90;;;;;;5054142;28;20590;-82
2021/11/09 14:58:39;;;;;;;4.80;3.77;;;14.10;99.90;;;;;;5048112;28;20611;-84
2021/11/09 15:01:46;;;;;;;4.27;2.10;;;14.10;99.90;;;;;;5041247;28;20582;-84
2021/11/09 15:07:33;;;;;;;3.60;2.07;;;14.00;99.90;;;;;;5053264;28;20686;-84
2021/11/09 15:10:44;;;;;;;3.80;1.30;;;14.00;99.90;;;;;;5046197;28;20597;-83
2021/11/09 15:25:02;;;;;;;5.47;2.20;;;13.90;99.90;;;;;;5035048;28;20603;-82
2021/11/09 15:35:06;;;;;;;5.30;2.63;;;13.60;99.90;;;;;;5021967;28;20702;-82
2021/11/09 15:37:37;;;;;;;6.83;1.97;;;13.60;99.90;;;;;;5048563;28;20948;-83
2021/11/09 15:40:07;;;;;;;6.38;3.30;;;13.60;99.90;;;;;;5049319;28;20624;-84
2021/11/09 15:42:33;;;;;;;7.93;4.10;;;13.50;99.90;;;;;;5044150;28;20188;-83
2021/11/09 15:44:58;;;;;;;4.73;3.10;;;13.50;99.90;;;;;;5024464;28;20983;-82
2021/11/09 15:47:25;;;;;;;10.63;4.80;;;13.50;99.90;;;;;;5021220;28;21223;-82
2021/11/09 15:49:51;;;;;;;9.00;6.13;;;13.40;99.90;;;;;;5041992;28;20173;-82
2021/11/09 15:52:18;;;;;;;6.67;5.30;;;13.40;99.90;;;;;;5040265;28;20645;-82
2021/11/09 15:54:44;;;;;;;6.80;3.93;;;13.40;99.90;;;;;;5046596;28;20567;-81
2021/11/09 15:57:10;;;;;;;8.55;3.50;;;13.30;99.90;;;;;;5033408;28;20576;-81
2021/11/09 15:59:36;;;;;;;4.60;2.30;;;13.30;99.90;;;;;;5049128;28;20202;-82
2021/11/09 16:02:02;;;;;;;5.93;2.77;;;13.20;99.90;;;;;;5054384;28;20591;-81